createdAt,value
2022-11-17T00:00:43.845Z,3.22
2022-11-17T00:03:51.446Z,3.30
2022-11-17T00:06:54.571Z,3.07
2022-11-17T00:09:57.997Z,3.25
2022-11-17T00:13:19.108Z,3.10
2022-11-17T00:16:23.060Z,3.50
2022-11-17T00:19:45.476Z,3.67
2022-11-17T00:22:48.921Z,3.10
2022-11-17T00:25:53.151Z,3.28
2022-11-17T00:43:58.906Z,7.27
2022-11-17T00:47:02.599Z,7.53
2022-11-17T00:50:06.755Z,9.00
2022-11-17T00:53:10.840Z,9.63
2022-11-17T00:56:13.999Z,8.27
2022-11-17T00:59:18.927Z,11.55
2022-11-17T01:02:23.034Z,9.70
2022-11-17T01:05:32.708Z,8.82
2022-11-17T01:08:36.408Z,8.13
2022-11-17T01:11:39.879Z,8.07
2022-11-17T01:14:42.875Z,7.35
2022-11-17T01:17:46.529Z,7.50
2022-11-17T01:20:49.474Z,8.07
2022-11-17T01:23:54.973Z,6.90
2022-11-17T01:26:58.706Z,9.13
2022-11-17T01:30:01.969Z,12.95
2022-11-17T01:33:05.617Z,12.90
2022-11-17T01:36:13.682Z,14.57
2022-11-17T01:39:17.318Z,12.10
2022-11-17T01:42:25.359Z,11.53
2022-11-17T01:45:28.969Z,10.63
2022-11-17T01:48:33.090Z,8.20
2022-11-17T01:51:39.972Z,8.85
2022-11-17T01:54:47.854Z,8.70
2022-11-17T01:57:56.074Z,5.53
2022-11-17T02:01:00.349Z,7.00
2022-11-17T02:04:06.030Z,7.47
2022-11-17T02:07:12.920Z,7.57
2022-11-17T02:10:16.877Z,7.10
2022-11-17T02:13:22.529Z,7.13
2022-11-17T02:16:26.124Z,5.55
2022-11-17T02:19:36.535Z,6.70
2022-11-17T02:23:16.291Z,6.47
2022-11-17T02:26:26.444Z,6.40
2022-11-17T02:29:44.213Z,7.63
2022-11-17T02:32:54.391Z,6.35
2022-11-17T02:36:04.259Z,6.03
2022-11-17T02:39:25.460Z,5.72
2022-11-17T02:42:55.618Z,6.28
2022-11-17T02:46:10.437Z,4.57
2022-11-17T02:49:38.534Z,5.15
2022-11-17T02:52:42.480Z,5.63
2022-11-17T02:55:54.095Z,3.85
2022-11-17T02:59:01.589Z,2.85
2022-11-17T03:02:22.029Z,2.20
2022-11-17T03:05:57.560Z,2.70
2022-11-17T03:09:09.061Z,2.30
2022-11-17T03:12:34.770Z,2.10
2022-11-17T03:16:13.729Z,1.80
2022-11-17T03:19:27.485Z,1.70
2022-11-17T03:22:59.295Z,2.00
2022-11-17T03:26:06.502Z,2.05
2022-11-17T03:29:14.616Z,2.10
2022-11-17T03:32:19.605Z,2.88
2022-11-17T03:35:28.440Z,3.27
2022-11-17T03:38:38.482Z,2.70
2022-11-17T03:41:46.943Z,4.00
2022-11-17T03:44:56.249Z,2.95
2022-11-17T03:48:26.022Z,2.70
2022-11-17T03:51:31.868Z,2.17
2022-11-17T03:54:37.925Z,2.42
2022-11-17T03:57:41.711Z,2.38
2022-11-17T04:00:46.623Z,1.60
2022-11-17T04:03:50.359Z,2.45
2022-11-17T04:06:54.055Z,2.30
2022-11-17T04:09:57.179Z,1.83
2022-11-17T04:13:19.367Z,1.40
2022-11-17T04:16:23.383Z,1.70
2022-11-17T04:19:27.035Z,1.67
2022-11-17T04:22:30.695Z,1.30
2022-11-17T04:25:56.963Z,1.55
2022-11-17T04:29:00.911Z,1.40
2022-11-17T04:32:04.706Z,1.33
2022-11-17T04:35:08.965Z,1.75
2022-11-17T04:38:12.980Z,1.87
2022-11-17T04:41:35.891Z,1.98
2022-11-17T04:44:38.933Z,2.33
2022-11-17T04:47:43.326Z,1.95
2022-11-17T04:50:46.320Z,2.15
2022-11-17T04:53:50.201Z,2.40
2022-11-17T04:56:55.308Z,2.45
2022-11-17T04:59:59.342Z,2.65
2022-11-17T05:03:02.382Z,2.35
2022-11-17T05:06:05.808Z,2.70
2022-11-17T05:09:11.688Z,1.90
2022-11-17T05:12:34.237Z,2.80
2022-11-17T05:15:55.451Z,2.58
2022-11-17T05:18:58.833Z,3.53
2022-11-17T05:22:02.894Z,2.40
2022-11-17T05:25:08.809Z,1.83
2022-11-17T05:28:11.835Z,1.77
2022-11-17T05:31:15.376Z,1.50
2022-11-17T05:34:19.284Z,1.23
2022-11-17T05:37:25.049Z,1.88
2022-11-17T05:40:28.704Z,1.27
2022-11-17T05:43:31.775Z,2.10
2022-11-17T05:46:35.556Z,2.97
2022-11-17T05:49:38.853Z,3.55
2022-11-17T05:52:41.952Z,3.50
2022-11-17T05:55:45.674Z,3.10
2022-11-17T05:58:54.247Z,3.60
2022-11-17T06:02:01.840Z,4.13
2022-11-17T06:05:06.219Z,2.65
2022-11-17T06:08:10.198Z,2.40
2022-11-17T06:11:14.746Z,1.80
2022-11-17T06:14:18.039Z,1.70
2022-11-17T06:17:36.155Z,2.90
2022-11-17T06:20:44.436Z,1.58
2022-11-17T06:23:48.970Z,1.50
2022-11-17T06:26:51.969Z,1.63
2022-11-17T06:29:57.151Z,1.58
2022-11-17T06:33:01.499Z,1.80
2022-11-17T06:36:08.278Z,2.30
2022-11-17T06:39:11.901Z,4.68
2022-11-17T06:42:15.321Z,7.10
2022-11-17T06:45:18.362Z,6.90
2022-11-17T06:48:28.069Z,7.78
2022-11-17T06:51:31.295Z,8.02
2022-11-17T06:54:34.535Z,5.30
2022-11-17T06:57:37.538Z,5.77
2022-11-17T07:00:41.317Z,5.43
2022-11-17T07:03:45.123Z,6.32
2022-11-17T07:06:48.794Z,5.88
2022-11-17T07:09:52.291Z,4.70
2022-11-17T07:12:55.504Z,4.10
2022-11-17T07:16:07.758Z,3.65
2022-11-17T07:19:12.314Z,5.28
2022-11-17T07:22:15.497Z,4.75
2022-11-17T07:25:22.404Z,4.32
2022-11-17T07:28:26.268Z,4.13
2022-11-17T07:31:29.834Z,3.10
2022-11-17T07:34:32.826Z,4.00
2022-11-17T07:37:36.614Z,5.43
2022-11-17T07:40:39.660Z,5.95
2022-11-17T07:43:43.689Z,9.27
2022-11-17T07:46:46.566Z,9.07
2022-11-17T07:49:50.507Z,25.45
2022-11-17T07:52:55.302Z,10.35
2022-11-17T07:56:02.675Z,7.82
2022-11-17T07:59:06.012Z,7.23
2022-11-17T08:02:10.551Z,11.27
2022-11-17T08:05:13.752Z,27.23
2022-11-17T08:08:18.458Z,6.57
2022-11-17T08:11:22.039Z,5.63
2022-11-17T08:14:25.048Z,6.13
2022-11-17T08:17:30.297Z,13.20
2022-11-17T08:20:33.405Z,11.10
2022-11-17T08:23:38.377Z,7.20
2022-11-17T08:26:42.005Z,6.88
2022-11-17T08:29:46.043Z,8.90
2022-11-17T08:32:50.588Z,6.57
2022-11-17T08:35:53.922Z,7.97
2022-11-17T08:38:56.886Z,7.03
2022-11-17T08:41:59.892Z,10.80
2022-11-17T08:45:03.501Z,8.57
2022-11-17T08:48:08.450Z,5.57
2022-11-17T08:51:14.472Z,6.45
2022-11-17T08:54:18.412Z,5.97
2022-11-17T08:57:23.082Z,7.35
2022-11-17T09:00:26.751Z,39.93
2022-11-17T09:03:30.115Z,8.50
2022-11-17T09:06:33.105Z,18.05
2022-11-17T09:09:37.132Z,9.80
2022-11-17T09:12:40.260Z,11.82
2022-11-17T09:15:44.285Z,8.87
2022-11-17T09:18:47.200Z,11.38
2022-11-17T09:21:50.120Z,10.98
2022-11-17T09:24:54.261Z,8.15
2022-11-17T09:27:57.819Z,9.07
2022-11-17T09:31:10.727Z,9.50
2022-11-17T09:34:14.359Z,9.32
2022-11-17T09:37:17.341Z,9.70
2022-11-17T09:40:21.551Z,10.70
2022-11-17T09:43:38.237Z,11.10
2022-11-17T09:46:41.150Z,8.50
2022-11-17T09:50:00.033Z,10.02
2022-11-17T09:53:13.766Z,8.00
2022-11-17T09:56:17.814Z,8.90
2022-11-17T09:59:24.878Z,7.28
2022-11-17T10:02:28.247Z,7.27
2022-11-17T10:05:34.985Z,6.93
2022-11-17T10:08:59.420Z,7.78
2022-11-17T10:12:34.244Z,10.27
2022-11-17T10:15:49.654Z,7.57
2022-11-17T10:18:52.555Z,5.13
2022-11-17T10:22:34.428Z,9.13
2022-11-17T10:25:38.895Z,7.35
2022-11-17T10:28:42.285Z,7.18
2022-11-17T10:31:47.187Z,7.38
2022-11-17T10:34:52.662Z,7.77
2022-11-17T10:38:03.691Z,6.15
2022-11-17T10:41:07.388Z,7.40
2022-11-17T10:44:13.005Z,5.72
2022-11-17T10:47:46.433Z,7.15
2022-11-17T10:51:20.143Z,8.43
2022-11-17T10:54:24.457Z,7.40
2022-11-17T10:57:28.211Z,10.48
2022-11-17T11:00:36.692Z,9.88
2022-11-17T11:03:50.054Z,12.18
2022-11-17T11:07:15.598Z,10.30
2022-11-17T11:10:27.722Z,9.05
2022-11-17T11:13:41.403Z,8.90
2022-11-17T11:16:48.321Z,7.95
2022-11-17T11:19:54.021Z,10.50
2022-11-17T11:23:15.124Z,9.27
2022-11-17T11:26:37.302Z,8.32
2022-11-17T11:29:55.685Z,8.52
2022-11-17T11:33:07.769Z,7.72
2022-11-17T11:36:37.593Z,9.55
2022-11-17T11:39:47.506Z,11.80
2022-11-17T11:43:26.566Z,12.43
2022-11-17T11:47:00.671Z,13.68
2022-11-17T11:50:26.664Z,21.02
2022-11-17T11:53:59.753Z,21.63
2022-11-17T11:57:03.896Z,15.37
2022-11-17T12:00:16.016Z,12.77
2022-11-17T12:03:40.676Z,13.88
2022-11-17T12:06:54.409Z,14.73
2022-11-17T12:09:58.155Z,14.48
2022-11-17T12:13:04.474Z,11.80
2022-11-17T12:16:27.893Z,11.55
2022-11-17T12:19:49.557Z,10.38
2022-11-17T12:23:21.417Z,12.75
2022-11-17T12:26:30.904Z,11.80
2022-11-17T12:29:46.716Z,13.10
2022-11-17T12:32:50.433Z,16.20
2022-11-17T12:36:29.721Z,14.75
2022-11-17T12:39:53.164Z,15.93
2022-11-17T12:43:20.422Z,16.75
2022-11-17T12:46:28.068Z,19.40
2022-11-17T12:50:04.040Z,16.65
2022-11-17T12:53:13.853Z,18.55
2022-11-17T12:56:54.878Z,16.80
2022-11-17T13:00:08.115Z,18.60
2022-11-17T13:03:23.404Z,19.20
2022-11-17T13:06:41.793Z,17.73
2022-11-17T13:09:45.142Z,15.38
2022-11-17T13:12:48.751Z,14.95
2022-11-17T13:15:59.644Z,16.52
2022-11-17T13:19:03.617Z,18.20
2022-11-17T13:22:14.297Z,17.77
2022-11-17T13:25:24.880Z,18.42
2022-11-17T13:28:33.015Z,17.02
2022-11-17T13:31:37.292Z,14.00
2022-11-17T13:34:52.209Z,14.80
2022-11-17T13:38:19.839Z,21.08
2022-11-17T13:41:28.556Z,18.05
2022-11-17T13:44:33.251Z,16.95
2022-11-17T13:47:37.059Z,17.45
2022-11-17T13:50:40.490Z,18.37
2022-11-17T13:53:46.464Z,22.73
2022-11-17T13:56:53.598Z,24.70
2022-11-17T13:59:58.124Z,21.15
2022-11-17T14:03:04.824Z,20.95
2022-11-17T14:06:13.147Z,19.23
2022-11-17T14:09:20.045Z,16.58
2022-11-17T14:12:23.360Z,14.77
2022-11-17T14:15:30.029Z,11.80
2022-11-17T14:18:38.326Z,12.18
2022-11-17T14:21:59.936Z,14.63
2022-11-17T14:25:02.869Z,12.82
2022-11-17T14:28:06.460Z,14.82
2022-11-17T14:31:14.312Z,16.17
2022-11-17T14:34:17.666Z,16.83
2022-11-17T14:37:21.493Z,15.70
2022-11-17T14:40:25.132Z,17.38
2022-11-17T14:43:28.187Z,20.35
2022-11-17T14:46:33.096Z,19.27
2022-11-17T14:49:36.869Z,17.83
2022-11-17T14:52:42.899Z,17.10
2022-11-17T14:55:46.308Z,18.20
2022-11-17T14:58:55.024Z,22.00
2022-11-17T15:01:58.279Z,20.00
2022-11-17T15:05:01.644Z,12.00
2022-11-17T15:08:05.562Z,13.17
2022-11-17T15:11:16.203Z,13.27
2022-11-17T15:14:19.776Z,13.50
2022-11-17T15:17:24.286Z,13.35
2022-11-17T15:20:30.065Z,16.05
2022-11-17T15:23:34.538Z,25.13
2022-11-17T15:26:38.395Z,21.55
2022-11-17T15:29:42.482Z,33.65
2022-11-17T15:32:45.581Z,32.83
2022-11-17T15:35:48.678Z,36.35
2022-11-17T15:38:53.825Z,27.67
2022-11-17T15:41:57.582Z,22.85
2022-11-17T15:45:01.683Z,22.52
2022-11-17T15:48:05.224Z,22.30
2022-11-17T15:51:10.533Z,24.23
2022-11-17T15:54:20.047Z,16.97
2022-11-17T15:57:24.196Z,12.20
2022-11-17T16:00:27.150Z,8.70
2022-11-17T16:03:30.392Z,9.15
2022-11-17T16:06:36.540Z,8.27
2022-11-17T16:09:39.862Z,13.90
2022-11-17T16:12:43.006Z,30.83
2022-11-17T16:15:49.379Z,38.13
2022-11-17T16:18:52.711Z,55.58
2022-11-17T16:21:56.461Z,63.35
2022-11-17T16:25:00.066Z,72.90
2022-11-17T16:28:03.804Z,76.75
2022-11-17T16:31:15.330Z,73.88
2022-11-17T16:34:19.550Z,70.40
2022-11-17T16:37:23.452Z,78.80
2022-11-17T16:40:26.783Z,68.57
2022-11-17T16:43:30.666Z,65.88
2022-11-17T16:46:33.831Z,62.80
2022-11-17T16:49:38.753Z,63.75
2022-11-17T16:52:41.671Z,63.20
2022-11-17T16:55:44.691Z,58.20
2022-11-17T16:58:52.113Z,56.47
2022-11-17T17:01:55.123Z,46.60
2022-11-17T17:04:58.097Z,43.97
2022-11-17T17:08:01.771Z,34.80
2022-11-17T17:11:10.894Z,33.83
2022-11-17T17:14:15.872Z,32.55
2022-11-17T17:17:19.322Z,33.60
2022-11-17T17:20:23.051Z,33.53
2022-11-17T17:23:28.236Z,32.42
2022-11-17T17:26:33.614Z,31.73
2022-11-17T17:29:36.506Z,32.13
2022-11-17T17:32:39.484Z,33.67
2022-11-17T17:35:42.506Z,34.40
2022-11-17T17:38:50.154Z,33.80
2022-11-17T17:41:57.129Z,25.80
2022-11-17T17:45:01.139Z,27.90
2022-11-17T17:48:06.181Z,29.83
2022-11-17T17:51:20.875Z,27.70
2022-11-17T17:54:25.736Z,26.17
2022-11-17T17:57:32.715Z,22.10
2022-11-17T18:00:37.334Z,20.85
2022-11-17T18:03:40.920Z,24.00
2022-11-17T18:06:48.431Z,23.15
2022-11-17T18:09:52.130Z,23.40
2022-11-17T18:12:56.055Z,23.00
2022-11-17T18:16:00.497Z,21.58
2022-11-17T18:19:06.783Z,22.77
2022-11-17T18:22:10.215Z,21.33
2022-11-17T18:25:17.799Z,20.75
2022-11-17T18:28:21.727Z,17.13
2022-11-17T18:31:27.105Z,17.55
2022-11-17T18:34:30.428Z,17.20
2022-11-17T18:37:33.505Z,17.50
2022-11-17T18:40:37.491Z,21.35
2022-11-17T18:43:42.401Z,32.77
2022-11-17T18:46:46.073Z,51.35
2022-11-17T18:49:49.311Z,26.70
2022-11-17T18:52:53.099Z,41.53
2022-11-17T18:56:04.755Z,46.05
2022-11-17T18:59:12.401Z,31.83
2022-11-17T19:02:15.467Z,17.05
2022-11-17T19:05:18.495Z,14.75
2022-11-17T19:08:21.555Z,26.98
2022-11-17T19:11:24.661Z,20.88
2022-11-17T19:14:28.440Z,17.83
2022-11-17T19:17:31.746Z,19.80
2022-11-17T19:20:35.535Z,19.08
2022-11-17T19:23:48.020Z,11.60
2022-11-17T19:26:54.704Z,11.52
2022-11-17T19:29:57.651Z,17.30
2022-11-17T19:33:00.994Z,17.48
2022-11-17T19:36:11.583Z,22.85
2022-11-17T19:39:15.270Z,17.33
2022-11-17T19:42:19.990Z,19.20
2022-11-17T19:45:24.827Z,17.63
2022-11-17T19:48:28.682Z,16.30
2022-11-17T19:51:34.134Z,15.95
2022-11-17T19:54:37.130Z,15.65
2022-11-17T19:57:40.045Z,17.92
2022-11-17T20:00:45.744Z,20.63
2022-11-17T20:03:49.819Z,19.75
2022-11-17T20:06:52.824Z,16.20
2022-11-17T20:09:56.521Z,20.85
2022-11-17T20:13:01.057Z,17.70
2022-11-17T20:16:11.706Z,11.73
2022-11-17T20:19:16.182Z,10.68
2022-11-17T20:22:19.811Z,10.35
2022-11-17T20:25:22.755Z,9.60
2022-11-17T20:28:25.800Z,10.02
2022-11-17T20:31:32.821Z,9.83
2022-11-17T20:34:36.578Z,10.77
2022-11-17T20:37:39.893Z,9.18
2022-11-17T20:40:42.822Z,10.02
2022-11-17T20:43:49.587Z,10.77
2022-11-17T20:46:55.489Z,10.23
2022-11-17T20:49:58.821Z,10.40
2022-11-17T20:53:01.756Z,9.82
2022-11-17T20:56:07.507Z,8.13
2022-11-17T20:59:13.227Z,7.60
2022-11-17T21:02:19.235Z,8.47
2022-11-17T21:05:22.672Z,7.95
2022-11-17T21:08:31.376Z,5.85
2022-11-17T21:11:53.965Z,5.50
2022-11-17T21:14:56.806Z,4.47
2022-11-17T21:18:18.600Z,5.60
2022-11-17T21:21:22.797Z,6.55
2022-11-17T21:24:28.263Z,6.63
2022-11-17T21:27:31.682Z,3.78
2022-11-17T21:30:35.429Z,5.32
2022-11-17T21:33:40.042Z,5.43
2022-11-17T21:36:43.612Z,6.75
2022-11-17T21:39:47.688Z,6.63
2022-11-17T21:42:50.990Z,5.63
2022-11-17T21:45:54.788Z,5.72
2022-11-17T21:48:59.833Z,5.47
2022-11-17T21:52:02.970Z,6.07
2022-11-17T21:55:06.871Z,6.68
2022-11-17T21:58:10.549Z,5.50
2022-11-17T22:01:16.648Z,6.35
2022-11-17T22:04:20.480Z,6.87
2022-11-17T22:07:24.966Z,11.25
2022-11-17T22:10:28.128Z,11.45
2022-11-17T22:13:31.568Z,12.13
2022-11-17T22:16:36.739Z,13.57
2022-11-17T22:19:40.574Z,12.83
2022-11-17T22:22:43.650Z,12.50
2022-11-17T22:25:57.627Z,12.68
2022-11-17T22:29:00.734Z,11.82
2022-11-17T22:32:04.041Z,13.15
2022-11-17T22:35:07.730Z,14.43
2022-11-17T22:38:15.254Z,13.48
2022-11-17T22:41:21.177Z,13.65
2022-11-17T22:44:24.828Z,14.15
2022-11-17T22:47:27.828Z,13.57
2022-11-17T22:50:31.838Z,15.93
2022-11-17T22:53:35.821Z,13.40
2022-11-17T22:56:40.022Z,12.02
2022-11-17T22:59:43.939Z,18.13
2022-11-17T23:02:47.898Z,14.38
2022-11-17T23:05:51.393Z,12.10
2022-11-17T23:08:55.755Z,11.43
2022-11-17T23:11:59.054Z,11.52
2022-11-17T23:15:02.147Z,10.43
2022-11-17T23:18:06.352Z,10.20
2022-11-17T23:21:10.875Z,9.27
2022-11-17T23:24:15.207Z,9.40
2022-11-17T23:27:18.202Z,9.52
2022-11-17T23:30:21.258Z,8.52
2022-11-17T23:33:24.158Z,11.75
2022-11-17T23:36:27.271Z,11.23
2022-11-17T23:39:31.491Z,10.90
2022-11-17T23:42:38.703Z,10.85
2022-11-17T23:45:45.729Z,11.55
2022-11-17T23:48:49.203Z,11.23
2022-11-17T23:51:52.334Z,12.60
2022-11-17T23:54:55.750Z,13.07
2022-11-17T23:57:59.063Z,14.93
